Skip Navigation Links
NOAA logo - Click to go to the NOAA homepage
NOAA's National Weather Service
Alaska Aviation Weather Unit
  NWS logo - Click to go to the NWS homepage
Left Navbar Graphic     22 AKDT = 06 GMT

   
NOAA is celebrating 200 years of science, service, and stewardship. Visit the NOAA 200th celebration Web site to learn more.
USA.gov is the U.S. Government's official Web portal to all Federal, state and local government Web resources and services.
Facebook
NWS on Facebook

Important Change Regarding the AAWU Web Presence

 

Over the last several months, the AAWU has been working to navigate its webpages to a nationally supported server. Security, as well as other needs, have necessitated the change.  We have been given an extension for the site changeover while we diligently work at addressing feedback received. As of July 14, 2017, aawu.arh.noaa.gov will be discontinued. The new AAWU web address is weather.gov/aawu. It is now live and will run in-parallel with the old site until it is discontinued on July 14, 2017. Please continue to send any feedback or questions regarding the new webpages to nws.ar.aawu.webauthors@noaa.gov.  Thank you for your patience during this time of transition.
AAWU Home :: Display TAF Add Bookmark
TAF PABE 260530Z 2606/2706 27007KT P6SM VCSH OVC050
     FM261200 27014KT 6SM BR OVC005
     FM262100 30012KT P6SM OVC007
     FM270000 31010KT P6SM OVC015=

PABE 260046Z 27008KT 8SM -RA FEW022 OVC035 16/14 A2990 RMK AO2 RAB32 P0000 T01610144= METAR PABE 260053Z 28009KT 9SM FEW020 OVC035 17/14 A2990 RMK AO2 RAB32E50 SLP127 P0000 T01670139= PABE 260140Z 28012KT 10SM FEW016 BKN027 OVC050 16/14 A2990= PABE 260140Z 28012KT 10SM FEW016 BKN027 OVC050 16/14 A2990 RMK AO2 RAB06E31 P0001 T01610144= PABE 260150Z 29014KT 10SM FEW018 SCT025 OVC050 16/14 A2991= PABE 260150Z 29014KT 10SM FEW018 SCT025 OVC050 16/14 A2991 RMK AO2 RAB06E31 P0001= METAR PABE 260153Z 29014KT 10SM FEW012 BKN041 OVC050 16/14 A2990 RMK AO2 RAB06E31 SLP127 P0001 T01610144= PABE 260156Z 28012KT 10SM FEW012 BKN025 OVC050 16/14 A2990= PABE 260156Z 28012KT 10SM FEW012 BKN025 OVC050 16/14 A2990 RMK AO2 T01610144= PABE 260204Z 28013KT 10SM SCT011 SCT022 BKN050 16/14 A2990= PABE 260204Z 28013KT 10SM SCT011 SCT022 BKN050 16/14 A2990 RMK AO2 T01610139= PABE 260206Z 29013KT 10SM SCT011 BKN022 BKN050 16/14 A2990= SPECI PABE 260206Z 29013KT 10SM SCT011 BKN022 BKN050 16/14 A2990 RMK AO2 T01610139= METAR PABE 260253Z 27013KT 10SM SCT011 BKN022 BKN050 16/14 A2990 RMK AO2 SLP128 60001 T01610139 51000= METAR PABE 260353Z 27010KT 10SM SCT011 BKN022 OVC050 16/13 A2991 RMK AO2 SLP128 T01610133= PABE 260417Z 28012KT 10SM SCT022 BKN032 OVC047 16/13 A2990= SPECI PABE 260417Z 28012KT 10SM SCT022 BKN032 OVC047 16/13 A2990 RMK AO2 RAB05E15 P0000 T01560133= METAR PABE 260453Z 26012KT 10SM BKN033 OVC040 15/14 A2991 RMK AO2 RAB05E15 SLP129 P0000 T01500139= PABE 260516Z 28009KT 10SM FEW009 SCT017 OVC036 15/14 A2991 RMK AO2 T01500139= PABE 260524Z 30010KT 10SM FEW009 BKN017 OVC036 15/13 A2991= PABE 260524Z 30010KT 10SM FEW009 BKN017 OVC036 15/13 A2991 RMK AO2 T01500133= METAR PABE 260553Z 30007KT 9SM SCT020 BKN030 OVC036 14/14 A2991 RMK AO2 SLP130 60001 T01440139 10178 20144 53002= PABE 260609Z 27006KT 10SM BKN023 OVC037 14/14 A2991= SPECI PABE 260609Z 27006KT 10SM BKN023 OVC037 14/14 A2991 RMK AO2 T01440139= PABE 260617Z 27008KT 2 1/2SM RA BR FEW008 BKN025 OVC033 14/14 A2991= SPECI PABE 260617Z 27008KT 2 1/2SM RA BR FEW008 BKN025 OVC033 14/14 A2991 RMK AO2 RAB14 P0000 T01390139=
 Alaska TAF Map

NOAA's National Weather Service
Alaska Aviation Weather Unit
6930 Sand Lake Road
Anchorage, AK 99502-1845
Disclaimer
Credits
Glossary
Privacy Policy
About Us
Career Opportunities
Contact AAWU Internet Services Site last modified: April, 17th 2012